Time;durP1;ratioP1;P1;durP2;ratioP2;P2;SDS_P1;SDS_P2;PMS_P1;PMS_P2;Temp;Humidity;BMP_temperature;BMP_pressure;BME280_temperature;BME280_humidity;BME280_pressure;Samples;Min_cycle;Max_cycle;Signal;HPM_P1;HPM_P2
2023/09/12 00:00:08;;;;;;;114.82;46.88;;;;;;;-147.95;100.00;58458.38;5085107;28;20466;-78
2023/09/12 00:02:34;;;;;;;120.10;46.63;;;;;;;-147.95;100.00;58458.38;5087743;28;20542;-77
2023/09/12 00:04:59;;;;;;;187.27;53.72;;;;;;;-147.95;100.00;58458.38;5086888;28;20038;-77
2023/09/12 00:07:26;;;;;;;221.13;52.78;;;;;;;-147.95;100.00;58458.38;5087388;28;20035;-77
2023/09/12 00:09:51;;;;;;;124.18;48.33;;;;;;;-147.95;100.00;58458.38;5088485;28;20036;-77
2023/09/12 00:12:17;;;;;;;191.50;52.90;;;;;;;-147.95;100.00;58458.38;5070470;28;20566;-78
2023/09/12 00:14:42;;;;;;;152.90;50.95;;;;;;;-147.95;100.00;58458.38;5073896;28;20031;-78
2023/09/12 00:17:09;;;;;;;205.23;53.75;;;;;;;-147.95;100.00;58458.38;5074413;28;20489;-78
2023/09/12 00:19:35;;;;;;;148.30;49.78;;;;;;;-147.95;100.00;58458.38;5087377;28;20020;-78
2023/09/12 00:22:00;;;;;;;111.25;45.35;;;;;;;-147.95;100.00;58458.38;5087564;28;20115;-78
2023/09/12 00:24:26;;;;;;;145.65;47.63;;;;;;;-147.95;100.00;58458.38;5050006;28;20093;-78
2023/09/12 00:26:51;;;;;;;131.02;47.42;;;;;;;-147.95;100.00;58458.38;5067880;28;20105;-78
2023/09/12 00:29:16;;;;;;;134.95;48.55;;;;;;;-147.95;100.00;58458.38;5087215;28;20033;-78
2023/09/12 00:31:42;;;;;;;136.75;50.05;;;;;;;-147.95;100.00;58458.38;5084576;28;20075;-78
2023/09/12 00:34:07;;;;;;;196.52;48.58;;;;;;;-147.95;100.00;58458.38;5090671;28;20032;-77
2023/09/12 00:36:33;;;;;;;152.05;48.95;;;;;;;-147.95;100.00;58458.38;5055230;28;20123;-78
2023/09/12 00:38:58;;;;;;;141.85;48.40;;;;;;;-147.95;100.00;58458.38;5088099;28;20142;-78
2023/09/12 00:41:23;;;;;;;137.35;47.80;;;;;;;-147.95;100.00;58458.38;5084603;28;20487;-77
2023/09/12 00:43:49;;;;;;;139.63;47.00;;;;;;;-147.95;100.00;58458.38;5069234;28;20166;-78
2023/09/12 00:46:19;;;;;;;170.95;48.75;;;;;;;-147.95;100.00;58458.38;5088564;28;20032;-78
2023/09/12 00:48:46;;;;;;;178.10;50.63;;;;;;;-147.95;100.00;58458.38;5088195;28;20102;-77
2023/09/12 00:51:13;;;;;;;206.10;53.55;;;;;;;-147.95;100.00;58458.38;5085944;28;20031;-78
2023/09/12 00:53:38;;;;;;;209.10;52.80;;;;;;;-147.95;100.00;58458.38;5082006;28;20039;-78
2023/09/12 00:56:04;;;;;;;156.18;47.97;;;;;;;-147.95;100.00;58458.38;5084384;28;20024;-77
2023/09/12 00:58:29;;;;;;;147.68;48.03;;;;;;;-147.95;100.00;58458.38;5067598;28;20036;-77
2023/09/12 01:00:56;;;;;;;181.82;52.85;;;;;;;-147.95;100.00;58458.38;5081360;28;20069;-77
2023/09/12 01:03:21;;;;;;;160.35;51.90;;;;;;;-147.95;100.00;58458.38;5082084;28;20434;-78
2023/09/12 01:05:47;;;;;;;146.07;48.08;;;;;;;-147.95;100.00;58458.38;5084314;28;20044;-78
2023/09/12 01:08:13;;;;;;;136.10;46.08;;;;;;;-147.95;100.00;58458.38;5084535;28;20487;-78
2023/09/12 01:10:38;;;;;;;121.25;45.92;;;;;;;-147.95;100.00;58458.38;5079908;28;20437;-77
2023/09/12 01:13:04;;;;;;;109.97;44.08;;;;;;;-147.95;100.00;58458.38;5081524;28;20039;-78
2023/09/12 01:15:29;;;;;;;155.68;49.03;;;;;;;-147.95;100.00;58458.38;5072348;28;20043;-77
2023/09/12 01:17:56;;;;;;;130.38;46.15;;;;;;;-147.95;100.00;58458.38;5083671;28;20055;-77
2023/09/12 01:20:29;;;;;;;137.13;49.75;;;;;;;-147.95;100.00;58458.38;5071694;28;20499;-78
2023/09/12 01:23:15;;;;;;;129.07;47.03;;;;;;;-147.95;100.00;58458.38;5085662;28;20032;-77
2023/09/12 01:26:08;;;;;;;144.60;48.42;;;;;;;-147.95;100.00;58458.38;5080463;28;20028;-78
2023/09/12 01:28:34;;;;;;;197.35;51.13;;;;;;;-147.95;100.00;58458.38;5084904;28;20020;-77
2023/09/12 01:31:02;;;;;;;146.65;47.22;;;;;;;-147.95;100.00;58458.38;5086084;28;20028;-77
2023/09/12 01:33:28;;;;;;;121.00;46.50;;;;;;;-147.95;100.00;58458.38;5078385;28;20027;-78
2023/09/12 01:35:54;;;;;;;131.13;46.72;;;;;;;-147.95;100.00;58458.38;5088778;28;20097;-78
2023/09/12 01:38:20;;;;;;;127.20;46.15;;;;;;;-147.95;100.00;58458.38;5061750;28;20537;-77
2023/09/12 01:40:49;;;;;;;122.47;45.53;;;;;;;-147.95;100.00;58458.38;5080515;28;20046;-78
2023/09/12 01:43:20;;;;;;;137.82;46.13;;;;;;;-147.95;100.00;58458.38;5086387;28;20032;-77
2023/09/12 01:45:49;;;;;;;125.30;46.55;;;;;;;-147.95;100.00;58458.38;5085923;28;20093;-78
2023/09/12 01:48:20;;;;;;;152.05;50.90;;;;;;;-147.95;100.00;58458.38;5078316;28;20036;-77
2023/09/12 01:50:46;;;;;;;134.80;47.45;;;;;;;-147.95;100.00;58458.38;5085421;28;20032;-78
2023/09/12 01:53:14;;;;;;;141.15;47.10;;;;;;;-147.95;100.00;58458.38;5089273;28;20512;-77
2023/09/12 01:55:41;;;;;;;153.85;51.20;;;;;;;-147.95;100.00;58458.38;5083366;28;20029;-78
2023/09/12 01:58:07;;;;;;;150.35;51.28;;;;;;;-147.95;100.00;58458.38;5069556;28;20047;-78
2023/09/12 02:00:34;;;;;;;129.45;48.45;;;;;;;-147.95;100.00;58458.38;5066981;28;20499;-78
2023/09/12 02:03:01;;;;;;;185.45;53.97;;;;;;;-147.95;100.00;58458.38;5083650;28;20506;-77
2023/09/12 02:05:26;;;;;;;221.55;57.72;;;;;;;-147.95;100.00;58458.38;5084028;28;20033;-78
2023/09/12 02:07:52;;;;;;;173.30;52.28;;;;;;;-147.95;100.00;58458.38;5086313;28;20047;-78
2023/09/12 02:10:17;;;;;;;148.82;51.83;;;;;;;-147.95;100.00;58458.38;5083547;28;20035;-78
2023/09/12 02:12:43;;;;;;;153.18;51.83;;;;;;;-147.95;100.00;58458.38;5084699;28;20119;-77
2023/09/12 02:15:09;;;;;;;205.43;54.72;;;;;;;-147.95;100.00;58458.38;5066473;28;20024;-77
2023/09/12 02:17:34;;;;;;;150.20;49.28;;;;;;;-147.95;100.00;58458.38;5087792;28;20050;-77
2023/09/12 02:20:00;;;;;;;150.65;51.05;;;;;;;-147.95;100.00;58458.38;5081237;28;20024;-77
2023/09/12 02:22:25;;;;;;;160.90;51.28;;;;;;;-147.95;100.00;58458.38;5088514;28;20036;-77
2023/09/12 02:24:51;;;;;;;186.88;51.00;;;;;;;-147.95;100.00;58458.38;5065595;28;20055;-78
2023/09/12 02:27:16;;;;;;;123.45;48.35;;;;;;;-147.95;100.00;58458.38;5082882;28;20785;-77
2023/09/12 02:29:42;;;;;;;124.30;47.25;;;;;;;-147.95;100.00;58458.38;5063951;28;20086;-78
2023/09/12 02:32:08;;;;;;;171.02;48.95;;;;;;;-147.95;100.00;58458.38;5082015;28;20103;-87
2023/09/12 02:34:34;;;;;;;166.30;50.60;;;;;;;-147.95;100.00;58458.38;5081150;28;20055;-87
2023/09/12 02:37:01;;;;;;;189.57;52.95;;;;;;;-147.95;100.00;58458.38;5080513;28;20068;-86
2023/09/12 02:39:26;;;;;;;174.30;51.83;;;;;;;-147.95;100.00;58458.38;5079330;28;20038;-86
2023/09/12 02:41:52;;;;;;;204.10;54.05;;;;;;;-147.95;100.00;58458.38;5083385;28;20031;-86
2023/09/12 02:44:17;;;;;;;205.15;54.08;;;;;;;-147.95;100.00;58458.38;5072528;28;20028;-86
2023/09/12 02:46:43;;;;;;;131.93;48.03;;;;;;;-147.95;100.00;58458.38;5066474;28;20502;-86
2023/09/12 02:49:08;;;;;;;126.10;47.75;;;;;;;-147.95;100.00;58458.38;5079156;28;20589;-86
2023/09/12 02:51:38;;;;;;;150.27;50.80;;;;;;;-147.95;100.00;58458.38;5082122;28;20107;-86
2023/09/12 02:54:03;;;;;;;252.68;57.05;;;;;;;-147.95;100.00;58458.38;5071546;28;20435;-86
2023/09/12 02:56:30;;;;;;;214.65;56.10;;;;;;;-147.95;100.00;58458.38;5089244;28;20030;-87
2023/09/12 02:58:56;;;;;;;213.93;54.47;;;;;;;-147.95;100.00;58458.38;5087905;28;20433;-86
2023/09/12 03:01:21;;;;;;;143.60;46.55;;;;;;;-147.95;100.00;58458.38;5085799;28;20020;-86
2023/09/12 03:03:48;;;;;;;203.20;48.90;;;;;;;-147.95;100.00;58458.38;5084728;28;20032;-86
2023/09/12 03:06:18;;;;;;;186.68;50.53;;;;;;;-147.95;100.00;58458.38;5083135;28;20025;-87
2023/09/12 03:08:44;;;;;;;185.18;50.38;;;;;;;-147.95;100.00;58458.38;5086084;28;20493;-87
2023/09/12 03:11:10;;;;;;;167.75;48.38;;;;;;;-147.95;100.00;58458.38;5084461;28;20095;-87
2023/09/12 03:13:37;;;;;;;191.77;50.17;;;;;;;-147.95;100.00;58458.38;5079643;28;20035;-87
2023/09/12 03:16:03;;;;;;;149.13;46.25;;;;;;;-147.95;100.00;58458.38;5084101;28;20034;-87
2023/09/12 03:18:28;;;;;;;129.05;43.92;;;;;;;-147.95;100.00;58458.38;5080529;28;20032;-87
2023/09/12 03:20:54;;;;;;;166.32;46.30;;;;;;;-147.95;100.00;58458.38;5083074;28;20032;-86
2023/09/12 03:23:20;;;;;;;167.57;44.25;;;;;;;-147.95;100.00;58458.38;5082492;28;20039;-87
2023/09/12 03:25:45;;;;;;;260.95;50.75;;;;;;;-147.95;100.00;58458.38;5083605;28;20035;-87
2023/09/12 03:28:10;;;;;;;140.23;45.72;;;;;;;-147.95;100.00;58458.38;5071315;28;20032;-86
2023/09/12 03:30:37;;;;;;;153.20;46.42;;;;;;;-147.95;100.00;58458.38;5085385;28;20060;-87
2023/09/12 03:33:04;;;;;;;168.23;47.28;;;;;;;-147.95;100.00;58458.38;5090720;28;20050;-87
2023/09/12 03:35:31;;;;;;;138.68;44.63;;;;;;;-147.95;100.00;58458.38;5067302;28;20502;-86
2023/09/12 03:37:57;;;;;;;102.93;41.22;;;;;;;-147.95;100.00;58458.38;5088428;28;20048;-87
2023/09/12 03:40:23;;;;;;;108.63;43.17;;;;;;;-147.95;100.00;58458.38;5083079;28;20596;-87
2023/09/12 03:42:49;;;;;;;108.35;42.45;;;;;;;-147.95;100.00;58458.38;5081656;28;20399;-87
2023/09/12 03:45:15;;;;;;;121.95;43.25;;;;;;;-147.95;100.00;58458.38;5068304;28;20059;-87
2023/09/12 03:47:40;;;;;;;242.10;53.58;;;;;;;-147.95;100.00;58458.38;5081410;28;20070;-86
2023/09/12 03:50:06;;;;;;;174.70;52.40;;;;;;;-147.95;100.00;58458.38;5084909;28;20035;-86
2023/09/12 03:52:31;;;;;;;163.35;51.63;;;;;;;-147.95;100.00;58458.38;5087159;28;20032;-86
2023/09/12 03:54:57;;;;;;;271.83;52.75;;;;;;;-147.95;100.00;58458.38;5082010;28;20483;-86
2023/09/12 03:57:22;;;;;;;231.93;55.35;;;;;;;-147.95;100.00;58458.38;5069275;28;20077;-86
2023/09/12 03:59:51;;;;;;;279.15;52.47;;;;;;;-147.95;100.00;58458.38;5088617;28;20036;-87
2023/09/12 04:02:16;;;;;;;309.38;51.75;;;;;;;-147.95;100.00;58458.38;5050630;28;20097;-86
2023/09/12 04:04:41;;;;;;;206.05;49.03;;;;;;;-147.95;100.00;58458.38;5068572;28;20487;-88
2023/09/12 04:07:07;;;;;;;191.70;49.45;;;;;;;-147.95;100.00;58458.38;5083838;28;20061;-87
2023/09/12 04:09:32;;;;;;;174.98;49.80;;;;;;;-147.95;100.00;58458.38;5090215;28;20032;-87
2023/09/12 04:11:59;;;;;;;139.23;48.45;;;;;;;-147.95;100.00;58458.38;5075306;28;20044;-87
2023/09/12 04:14:24;;;;;;;144.98;50.00;;;;;;;-147.95;100.00;58458.38;5091715;28;20059;-88
2023/09/12 04:16:50;;;;;;;132.75;48.58;;;;;;;-147.95;100.00;58458.38;5088864;28;20056;-87
2023/09/12 04:19:15;;;;;;;170.85;52.20;;;;;;;-147.95;100.00;58458.38;5084989;28;20028;-87
2023/09/12 04:21:41;;;;;;;133.75;48.83;;;;;;;-147.95;100.00;58458.38;5084308;28;20028;-87
2023/09/12 04:24:08;;;;;;;152.25;50.80;;;;;;;-147.95;100.00;58458.38;5065601;28;20024;-87
2023/09/12 04:26:33;;;;;;;169.90;51.67;;;;;;;-147.95;100.00;58458.38;5092892;28;20035;-88
2023/09/12 04:28:59;;;;;;;130.50;50.17;;;;;;;-147.95;100.00;58458.38;5092253;28;20501;-89
2023/09/12 04:31:24;;;;;;;127.05;48.53;;;;;;;-147.95;100.00;58458.38;5066887;28;20036;-87
2023/09/12 04:33:53;;;;;;;158.73;52.17;;;;;;;-147.95;100.00;58458.38;5085260;28;20402;-89
2023/09/12 04:36:20;;;;;;;158.80;52.17;;;;;;;-147.95;100.00;58458.38;5072267;28;20384;-86
2023/09/12 04:38:45;;;;;;;140.65;49.13;;;;;;;-147.95;100.00;58458.38;5086458;28;20027;-85
2023/09/12 04:41:16;;;;;;;132.85;49.25;;;;;;;-147.95;100.00;58458.38;5068132;28;20032;-86
2023/09/12 04:43:44;;;;;;;143.75;50.75;;;;;;;-147.95;100.00;58458.38;5082723;28;20028;-86
2023/09/12 04:46:10;;;;;;;127.18;49.42;;;;;;;-147.95;100.00;58458.38;5085583;28;20051;-85
2023/09/12 04:48:36;;;;;;;124.22;46.50;;;;;;;-147.95;100.00;58458.38;5085430;28;20032;-85
2023/09/12 04:51:01;;;;;;;136.82;47.70;;;;;;;-147.95;100.00;58458.38;5052850;28;20036;-78
2023/09/12 04:53:27;;;;;;;138.23;49.08;;;;;;;-147.95;100.00;58458.38;5055312;28;20036;-78
2023/09/12 04:55:53;;;;;;;132.13;49.40;;;;;;;-147.95;100.00;58458.38;5087868;28;20034;-78
2023/09/12 04:58:19;;;;;;;142.15;47.63;;;;;;;-147.95;100.00;58458.38;5078657;28;20074;-78
2023/09/12 05:00:45;;;;;;;136.23;47.80;;;;;;;-147.95;100.00;58458.38;5065599;28;20036;-78
2023/09/12 05:03:11;;;;;;;136.30;46.55;;;;;;;-147.95;100.00;58458.38;5077710;28;20025;-78
2023/09/12 05:05:36;;;;;;;125.65;48.40;;;;;;;-147.95;100.00;58458.38;5084216;28;20096;-78
2023/09/12 05:08:02;;;;;;;154.75;50.78;;;;;;;-147.95;100.00;58458.38;5080437;28;20078;-78
2023/09/12 05:10:27;;;;;;;152.35;50.42;;;;;;;-147.95;100.00;58458.38;5083741;28;20445;-78
2023/09/12 05:12:53;;;;;;;142.90;49.08;;;;;;;-147.95;100.00;58458.38;5085668;28;20028;-79
2023/09/12 05:15:18;;;;;;;122.90;44.97;;;;;;;-147.95;100.00;58458.38;5066153;28;20035;-78
2023/09/12 05:17:44;;;;;;;154.00;46.63;;;;;;;-147.95;100.00;58458.38;5081983;28;20027;-78
2023/09/12 05:20:09;;;;;;;137.20;46.28;;;;;;;-147.95;100.00;58458.38;5079836;28;20062;-78
2023/09/12 05:22:35;;;;;;;154.02;48.20;;;;;;;-147.95;100.00;58458.38;5081715;28;20499;-78
2023/09/12 05:25:00;;;;;;;121.20;45.83;;;;;;;-147.95;100.00;58458.38;5073315;28;20028;-78
2023/09/12 05:27:26;;;;;;;121.30;46.17;;;;;;;-147.95;100.00;58458.38;5087253;28;20447;-78
2023/09/12 05:29:51;;;;;;;121.30;46.28;;;;;;;-147.95;100.00;58458.38;5080756;28;20055;-78
2023/09/12 05:32:16;;;;;;;123.88;46.53;;;;;;;-147.95;100.00;58458.38;5084831;28;20024;-78
2023/09/12 05:34:42;;;;;;;121.43;44.50;;;;;;;-147.95;100.00;58458.38;5062761;28;20506;-78
2023/09/12 05:37:07;;;;;;;139.30;48.67;;;;;;;-147.95;100.00;58458.38;5083906;28;20051;-78
2023/09/12 05:39:32;;;;;;;154.80;50.55;;;;;;;-147.95;100.00;58458.38;5082070;28;20157;-78
2023/09/12 05:41:58;;;;;;;169.18;51.22;;;;;;;-147.95;100.00;58458.38;5081173;28;20111;-78
2023/09/12 05:44:24;;;;;;;140.02;49.15;;;;;;;-147.95;100.00;58458.38;5089946;28;20506;-78
2023/09/12 05:46:49;;;;;;;134.75;47.72;;;;;;;-147.95;100.00;58458.38;5082403;28;20040;-78
2023/09/12 05:49:15;;;;;;;134.95;48.42;;;;;;;-147.95;100.00;58458.38;5086403;28;20032;-78
2023/09/12 05:51:41;;;;;;;132.13;47.75;;;;;;;-147.95;100.00;58458.38;5081334;28;20436;-79
2023/09/12 05:54:08;;;;;;;147.60;48.92;;;;;;;-147.95;100.00;58458.38;5083537;28;20039;-78
2023/09/12 05:56:34;;;;;;;145.95;46.83;;;;;;;-147.95;100.00;58458.38;5072655;28;20023;-78
2023/09/12 05:58:59;;;;;;;145.73;47.38;;;;;;;-147.95;100.00;58458.38;5085329;28;20513;-78
2023/09/12 06:01:25;;;;;;;167.32;50.33;;;;;;;-147.95;100.00;58458.38;5085539;28;20028;-87
2023/09/12 06:03:50;;;;;;;133.13;47.60;;;;;;;-147.95;100.00;58458.38;5058096;28;20040;-87
2023/09/12 06:06:16;;;;;;;134.63;48.25;;;;;;;-147.95;100.00;58458.38;5086581;28;20035;-89
2023/09/12 06:08:41;;;;;;;171.32;47.80;;;;;;;-147.95;100.00;58458.38;5081645;28;20036;-88
2023/09/12 06:11:06;;;;;;;162.07;50.55;;;;;;;-147.95;100.00;58458.38;5090133;28;20795;-88
2023/09/12 06:13:32;;;;;;;170.18;50.33;;;;;;;-147.95;100.00;58458.38;5068110;28;20036;-88
2023/09/12 06:15:58;;;;;;;182.20;51.75;;;;;;;-147.95;100.00;58458.38;5073631;28;20143;-88
2023/09/12 06:18:28;;;;;;;136.40;48.13;;;;;;;-147.95;100.00;58458.38;5089246;28;20040;-89
2023/09/12 06:20:53;;;;;;;120.35;46.03;;;;;;;-147.95;100.00;58458.38;5090307;28;20077;-89
2023/09/12 06:23:20;;;;;;;147.25;47.95;;;;;;;-147.95;100.00;58458.38;5064576;28;20028;-88
2023/09/12 06:25:45;;;;;;;124.03;47.55;;;;;;;-147.95;100.00;58458.38;5070461;28;20105;-88
2023/09/12 06:28:10;;;;;;;133.40;48.45;;;;;;;-147.95;100.00;58458.38;5091590;28;20471;-89
2023/09/12 06:30:36;;;;;;;146.68;47.22;;;;;;;-147.95;100.00;58458.38;5085354;28;20035;-87
2023/09/12 06:33:04;;;;;;;125.40;47.00;;;;;;;-147.95;100.00;58458.38;5065657;28;20448;-88
2023/09/12 06:35:31;;;;;;;129.90;47.90;;;;;;;-147.95;100.00;58458.38;5092122;28;20494;-91
2023/09/12 06:37:57;;;;;;;187.90;53.67;;;;;;;-147.95;100.00;58458.38;5072533;28;20037;-87
2023/09/12 06:40:22;;;;;;;148.65;49.90;;;;;;;-147.95;100.00;58458.38;5065191;28;20033;-91
2023/09/12 06:42:47;;;;;;;192.10;53.72;;;;;;;-147.95;100.00;58458.38;5073334;28;20146;-92
2023/09/12 06:45:13;;;;;;;155.48;51.17;;;;;;;-147.95;100.00;58458.38;5074555;28;20051;-95
2023/09/12 06:47:38;;;;;;;141.10;51.15;;;;;;;-147.95;100.00;58458.38;5050569;28;20123;-91
2023/09/12 06:50:04;;;;;;;145.50;51.97;;;;;;;-147.95;100.00;58458.38;5052812;28;20424;-92
2023/09/12 06:52:29;;;;;;;160.18;56.50;;;;;;;-147.95;100.00;58458.38;5048479;28;20036;-95
2023/09/12 06:54:55;;;;;;;168.05;56.92;;;;;;;-147.95;100.00;58458.38;5053341;28;20394;-93
2023/09/12 06:57:21;;;;;;;154.90;56.42;;;;;;;-147.95;100.00;58458.38;5090775;28;20032;-91
2023/09/12 06:59:49;;;;;;;161.63;56.90;;;;;;;-147.95;100.00;58458.38;5057777;28;20553;-87
2023/09/12 07:02:14;;;;;;;171.95;58.63;;;;;;;-147.95;100.00;58458.38;5053219;28;20033;-89
2023/09/12 07:04:39;;;;;;;154.43;58.60;;;;;;;-147.95;100.00;58458.38;5087241;28;20083;-86
2023/09/12 07:07:07;;;;;;;179.85;60.35;;;;;;;-147.95;100.00;58458.38;5069974;28;20059;-86
2023/09/12 07:09:33;;;;;;;165.85;54.53;;;;;;;-147.95;100.00;58458.38;5081334;28;20448;-84
2023/09/12 07:11:59;;;;;;;162.40;55.40;;;;;;;-147.95;100.00;58458.38;5084241;28;20036;-78
2023/09/12 07:14:25;;;;;;;180.38;54.25;;;;;;;-147.95;100.00;58458.38;5065330;28;20130;-77
2023/09/12 07:16:50;;;;;;;145.13;51.53;;;;;;;-147.95;100.00;58458.38;5077495;28;20513;-79
2023/09/12 07:19:16;;;;;;;150.73;51.58;;;;;;;-147.95;100.00;58458.38;5078578;28;20054;-78
2023/09/12 07:21:41;;;;;;;141.52;51.83;;;;;;;-147.95;100.00;58458.38;5081099;28;20491;-78
2023/09/12 07:24:07;;;;;;;127.22;50.35;;;;;;;-147.95;100.00;58458.38;5068264;28;20036;-78
2023/09/12 07:26:32;;;;;;;141.93;51.95;;;;;;;-147.95;100.00;58458.38;5085545;28;20024;-78
2023/09/12 07:28:58;;;;;;;121.85;50.20;;;;;;;-147.95;100.00;58458.38;5070906;28;20093;-78
2023/09/12 07:31:23;;;;;;;125.07;49.35;;;;;;;-147.95;100.00;58458.38;5085522;28;20497;-78
2023/09/12 07:33:49;;;;;;;130.57;50.63;;;;;;;-147.95;100.00;58458.38;5082792;28;20044;-78
2023/09/12 07:36:14;;;;;;;153.43;52.33;;;;;;;-147.95;100.00;58458.38;5081585;28;20062;-77
2023/09/12 07:38:41;;;;;;;139.82;51.97;;;;;;;-147.95;100.00;58458.38;5081956;28;20043;-78
2023/09/12 07:41:07;;;;;;;128.30;52.42;;;;;;;-147.95;100.00;58458.38;5087419;28;20468;-78
2023/09/12 07:43:32;;;;;;;126.80;50.30;;;;;;;-147.95;100.00;58458.38;5065031;28;20103;-78
2023/09/12 07:45:58;;;;;;;122.35;48.67;;;;;;;-147.95;100.00;58458.38;5087025;28;20028;-78
2023/09/12 07:48:24;;;;;;;131.63;51.75;;;;;;;-147.95;100.00;58458.38;5066986;28;20020;-78
2023/09/12 07:50:51;;;;;;;131.25;51.25;;;;;;;-147.95;100.00;58458.38;5088200;28;20105;-78
2023/09/12 07:53:16;;;;;;;110.70;50.47;;;;;;;-147.95;100.00;58458.38;5079947;28;20032;-78
2023/09/12 07:55:46;;;;;;;120.85;48.45;;;;;;;-147.95;100.00;58458.38;5081568;28;20089;-78
2023/09/12 07:58:15;;;;;;;87.15;43.80;;;;;;;-147.95;100.00;58458.38;5088146;28;20032;-78
2023/09/12 08:00:41;;;;;;;97.20;46.20;;;;;;;-147.95;100.00;58458.38;5086141;28;20032;-78
2023/09/12 08:03:08;;;;;;;86.43;43.28;;;;;;;-147.95;100.00;58458.38;5082343;28;20037;-78
2023/09/12 08:05:33;;;;;;;89.35;44.35;;;;;;;-147.95;100.00;58458.38;5081854;28;20076;-78
2023/09/12 08:07:58;;;;;;;96.18;43.92;;;;;;;-147.95;100.00;58458.38;5082639;28;20453;-78
2023/09/12 08:10:24;;;;;;;103.75;45.88;;;;;;;-147.95;100.00;58458.38;5079896;28;20035;-78
2023/09/12 08:12:49;;;;;;;95.22;47.95;;;;;;;-147.95;100.00;58458.38;5077644;28;20029;-78
2023/09/12 08:15:15;;;;;;;85.03;43.97;;;;;;;-147.95;100.00;58458.38;5088486;28;20082;-78
2023/09/12 08:17:40;;;;;;;74.22;39.97;;;;;;;-147.95;100.00;58458.38;5068302;28;20035;-78
2023/09/12 08:20:12;;;;;;;76.70;40.10;;;;;;;-147.95;100.00;58458.38;5086131;28;20046;-91
2023/09/12 08:22:38;;;;;;;77.20;40.95;;;;;;;-147.95;100.00;58458.38;5086168;28;20099;-91
2023/09/12 08:25:05;;;;;;;67.68;37.38;;;;;;;-147.95;100.00;58458.38;5092845;28;20033;-91
2023/09/12 08:27:31;;;;;;;76.43;39.53;;;;;;;-147.95;100.00;58458.38;5067616;28;20063;-91
2023/09/12 08:29:56;;;;;;;77.80;39.60;;;;;;;-147.95;100.00;58458.38;5064572;28;20479;-92
2023/09/12 08:32:22;;;;;;;77.90;38.72;;;;;;;-147.95;100.00;58458.38;5078031;28;20027;-91
2023/09/12 08:34:47;;;;;;;74.70;40.30;;;;;;;-147.95;100.00;58458.38;5097276;28;20039;-92
2023/09/12 08:37:13;;;;;;;74.70;38.55;;;;;;;-147.95;100.00;58458.38;5058970;28;20045;-91
2023/09/12 08:39:44;;;;;;;69.25;39.95;;;;;;;-147.95;100.00;58458.38;5079087;28;20510;-92
2023/09/12 08:42:14;;;;;;;75.15;39.20;;;;;;;-147.95;100.00;58458.38;5081176;28;20510;-92
2023/09/12 08:44:41;;;;;;;73.05;40.33;;;;;;;-147.95;100.00;58458.38;5094755;28;20028;-92
2023/09/12 08:47:11;;;;;;;62.13;36.75;;;;;;;-147.95;100.00;58458.38;5078684;28;20059;-93
2023/09/12 08:49:42;;;;;;;69.72;39.17;;;;;;;-147.95;100.00;58458.38;5095965;28;20028;-92
2023/09/12 08:52:07;;;;;;;69.07;35.20;;;;;;;-147.95;100.00;58458.38;5078651;28;20260;-92
2023/09/12 08:54:33;;;;;;;61.08;36.72;;;;;;;-147.95;100.00;58458.38;5085430;28;20567;-91
2023/09/12 08:57:02;;;;;;;64.65;36.60;;;;;;;-147.95;100.00;58458.38;5059995;28;20020;-92
2023/09/12 08:59:29;;;;;;;63.83;35.53;;;;;;;-147.95;100.00;58458.38;5091311;28;20016;-91
2023/09/12 09:01:58;;;;;;;63.65;36.08;;;;;;;-147.95;100.00;58458.38;5060903;28;20028;-92
2023/09/12 09:04:26;;;;;;;54.90;36.15;;;;;;;-147.95;100.00;58458.38;5077234;28;20047;-92
2023/09/12 09:06:54;;;;;;;64.65;37.72;;;;;;;-147.95;100.00;58458.38;5088320;28;20429;-91
2023/09/12 09:09:20;;;;;;;57.60;33.75;;;;;;;-147.95;100.00;58458.38;5087824;28;20049;-92
2023/09/12 09:11:46;;;;;;;59.72;34.13;;;;;;;-147.95;100.00;58458.38;5057654;28;20035;-92
2023/09/12 09:14:11;;;;;;;46.83;28.05;;;;;;;-147.95;100.00;58458.38;5061395;28;20028;-90
2023/09/12 09:16:38;;;;;;;47.55;28.45;;;;;;;-147.95;100.00;58458.38;5077486;28;20024;-92
2023/09/12 09:19:09;;;;;;;48.25;27.40;;;;;;;-147.95;100.00;58458.38;5066243;28;20033;-93
2023/09/12 09:21:36;;;;;;;39.63;25.30;;;;;;;-147.95;100.00;58458.38;5082570;28;20027;-92
2023/09/12 09:24:07;;;;;;;41.00;27.00;;;;;;;-147.95;100.00;58458.38;5052464;28;20028;-92
2023/09/12 09:26:47;;;;;;;41.00;24.70;;;;;;;-147.95;100.00;58458.38;5092108;28;20125;-92
2023/09/12 09:29:20;;;;;;;41.03;24.20;;;;;;;-147.95;100.00;58458.38;5093004;28;20081;-92
2023/09/12 09:31:47;;;;;;;30.05;17.75;;;;;;;-147.95;100.00;58458.38;5085467;28;20028;-79
2023/09/12 09:34:14;;;;;;;21.13;14.15;;;;;;;-147.95;100.00;58458.38;5082808;28;20089;-79
2023/09/12 09:36:51;;;;;;;31.25;19.40;;;;;;;-147.95;100.00;58458.38;5081519;28;20041;-79
2023/09/12 09:39:22;;;;;;;30.73;19.48;;;;;;;-147.95;100.00;58458.38;5080162;28;20081;-78
2023/09/12 09:41:49;;;;;;;33.40;19.15;;;;;;;-147.95;100.00;58458.38;5082503;28;20032;-79
2023/09/12 09:44:15;;;;;;;29.20;18.83;;;;;;;-147.95;100.00;58458.38;5082632;28;20422;-79
2023/09/12 09:46:43;;;;;;;28.13;15.73;;;;;;;-147.95;100.00;58458.38;5089598;28;20690;-79
2023/09/12 09:49:15;;;;;;;21.40;12.45;;;;;;;-147.95;100.00;58458.38;5085349;28;20032;-79
2023/09/12 09:51:42;;;;;;;24.55;15.18;;;;;;;-147.95;100.00;58458.38;5080960;28;20126;-79
2023/09/12 09:54:09;;;;;;;31.55;19.13;;;;;;;-147.95;100.00;58458.38;5084181;28;20025;-79
2023/09/12 09:56:48;;;;;;;30.65;19.15;;;;;;;-147.95;100.00;58458.38;5078501;28;20074;-79
2023/09/12 09:59:16;;;;;;;34.17;19.83;;;;;;;-147.95;100.00;58458.38;5087133;28;20027;-79
2023/09/12 10:01:44;;;;;;;27.33;17.52;;;;;;;-147.95;100.00;58458.38;5087795;28;20119;-79
2023/09/12 10:04:09;;;;;;;36.67;19.17;;;;;;;-147.95;100.00;58458.38;5082585;28;20031;-79
2023/09/12 10:06:40;;;;;;;29.45;20.15;;;;;;;-147.95;100.00;58458.38;5080275;28;20029;-79
2023/09/12 10:09:11;;;;;;;31.98;19.75;;;;;;;-147.95;100.00;58458.38;5081145;28;20380;-79
2023/09/12 10:11:38;;;;;;;33.03;18.40;;;;;;;-147.95;100.00;58458.38;5080579;28;20032;-79
2023/09/12 10:14:05;;;;;;;34.25;21.27;;;;;;;-147.95;100.00;58458.38;5088039;28;20024;-79
2023/09/12 10:16:35;;;;;;;35.47;21.10;;;;;;;-147.95;100.00;58458.38;5078946;28;20038;-79
2023/09/12 10:19:14;;;;;;;35.47;21.38;;;;;;;-147.95;100.00;58458.38;5081269;28;20105;-79
2023/09/12 10:22:10;;;;;;;34.75;21.60;;;;;;;-147.95;100.00;58458.38;5086768;28;20032;-79
2023/09/12 10:24:40;;;;;;;31.50;21.02;;;;;;;-147.95;100.00;58458.38;5086922;28;20036;-78
2023/09/12 10:27:06;;;;;;;37.95;22.48;;;;;;;-147.95;100.00;58458.38;5060330;28;20031;-78
2023/09/12 10:29:32;;;;;;;40.30;22.10;;;;;;;-147.95;100.00;58458.38;5080855;28;20036;-79
2023/09/12 10:31:57;;;;;;;39.30;23.75;;;;;;;-147.95;100.00;58458.38;5081902;28;20056;-79
2023/09/12 10:34:25;;;;;;;42.38;23.17;;;;;;;-147.95;100.00;58458.38;5081286;28;20032;-78
2023/09/12 10:36:51;;;;;;;32.97;21.85;;;;;;;-147.95;100.00;58458.38;5081097;28;20050;-79
2023/09/12 10:39:19;;;;;;;39.45;22.00;;;;;;;-147.95;100.00;58458.38;5086226;28;20540;-79
2023/09/12 10:41:46;;;;;;;35.53;20.95;;;;;;;-147.95;100.00;58458.38;5085846;28;20450;-79
2023/09/12 10:44:17;;;;;;;36.22;20.38;;;;;;;-147.95;100.00;58458.38;5065351;28;20029;-79
2023/09/12 10:46:46;;;;;;;34.92;20.30;;;;;;;-147.95;100.00;58458.38;5082095;28;20060;-79